May 28, 2024
Temp
 
66.6 °F
 
Dew Pt.
 
56.1 °F
 
Humidity
 
69%
 
Pressure
 
1015.4 hPa 
  steady
Wind
 
0.0 mph 
    W
Rain
 
0.00 in 
  0.00 in/hr
UV index
 
---  
 
Solar rad.
 
100 W/m²
 
MAP MAG LOCAL DATETIME
y/m/d h:m:s
LAT
deg
LON
deg
DEPTH
km
LOCATION
map1.92024/05/28 19:34:1838.819N122.833W-0.550000011920929 8 km ( 5 mi) NW of The Geysers, CA
map1.92024/05/28 19:28:3233.198N116.023W5.91 12 km ( 7 mi) ENE of Ocotillo Wells, CA
map1.82024/05/28 19:17:2132.825N116.110W10.19 15 km ( 9 mi) NW of Ocotillo, CA
MAP3.12024/05/28 19:07:2439.937N122.665W-0.790000021457672 24 km (15 mi) WSW of Rancho Tehama Reserve, CA
map1.92024/05/28 19:01:5940.377N124.320W26.8500003814697 23 km (14 mi) SW of Rio Dell, CA
map1.22024/05/28 18:47:3234.148N116.892W8.15 11 km ( 7 mi) S of Big Bear Lake, CA
map1.82024/05/28 18:41:5838.197N117.774W4.1 50 km (31 mi) WNW of Tonopah, NV
map1.82024/05/28 16:37:1333.821N117.777W3.13 3 km ( 2 mi) ENE of Villa Park, CA
map1.32024/05/28 16:37:1233.791N117.764W10.36 4 km ( 3 mi) NE of North Tustin, CA
map0.92024/05/28 16:34:4239.924N120.810W7.3 8 km ( 5 mi) E of East Quincy, CA
map1.42024/05/28 16:31:3935.028N117.686W-0.84 5 km ( 3 mi) NW of Boron, CA
map1.32024/05/28 15:44:4035.639N117.560W9.01 11 km ( 7 mi) E of Ridgecrest, CA
map1.62024/05/28 14:23:3438.371N118.900W5.2 30 km (18 mi) SW of Hawthorne, NV
map2.22024/05/28 14:13:1238.367N118.892W5.9 29 km (18 mi) SW of Hawthorne, NV
map1.02024/05/28 14:00:1233.344N116.343W11.15 10 km ( 6 mi) NNE of Borrego Springs, CA
map1.02024/05/28 12:45:1033.578N116.806W8.11 13 km ( 8 mi) WNW of Anza, CA
map1.12024/05/28 12:37:2533.384N116.876W1.81 3 km ( 2 mi) NNW of Palomar Observatory, CA
map1.92024/05/28 12:35:0633.383N116.877W2.57 3 km ( 2 mi) NNW of Palomar Observatory, CA
map2.22024/05/28 12:11:4234.363N119.184W3.14 11 km ( 7 mi) NNE of Ventura, CA
map1.52024/05/28 11:53:4234.989N118.189W0.9 7 km ( 4 mi) S of Mojave, CA
map1.52024/05/28 11:34:1238.265N122.243W-0.16 1 km ( 1 mi) ESE of Quarry near Sears Point, CA(Probable quarry explosion)
map1.12024/05/28 11:24:4733.032N115.994W8.81 18 km (11 mi) SE of Ocotillo Wells, CA
map0.62024/05/28 11:03:3833.666N116.740W2.38 9 km ( 5 mi) SSW of Idyllwild, CA
map1.52024/05/28 10:52:3233.972N117.072W14.14 3 km ( 2 mi) SW of Calimesa, CA
map0.62024/05/28 10:45:2233.808N116.210W5.17 10 km ( 6 mi) N of Indio, CA
map1.92024/05/28 10:31:4733.224N116.054W8.6 11 km ( 7 mi) NE of Ocotillo Wells, CA
map2.62024/05/28 10:02:3238.508N119.530W1.46000003814697 35 km (22 mi) SSW of Smith Valley, NV
map0.22024/05/28 09:46:0633.799N116.194W6.49 9 km ( 6 mi) NNE of Indio, CA
map0.42024/05/28 09:44:2933.289N116.744W13.29 6 km ( 3 mi) NNE of Lake Henshaw, CA
map1.02024/05/28 08:50:0435.773N117.586W2.4 16 km (10 mi) W of Searles Valley, CA
map0.62024/05/28 08:37:0833.705N116.805W17.18 9 km ( 6 mi) WSW of Idyllwild, CA
map1.52024/05/28 08:35:2732.908N116.248W2.15 28 km (17 mi) ENE of Pine Valley, CA
map1.12024/05/28 08:13:1532.905N116.244W8.53 28 km (18 mi) ENE of Pine Valley, CA
map0.62024/05/28 08:06:5533.810N116.215W5.48 10 km ( 6 mi) N of Indio, CA
map1.32024/05/28 07:52:0938.379N118.889W6.0 28 km (18 mi) SW of Hawthorne, NV
map1.12024/05/28 07:31:1133.230N116.019W-0.12 10 km ( 6 mi) SW of Salton City, CA
map1.02024/05/28 06:55:5333.689N116.808W15.47 10 km ( 6 mi) SW of Idyllwild, CA
map0.92024/05/28 06:52:4637.535N115.291W10.4 22 km (14 mi) NNW of Alamo, NV
map1.62024/05/28 06:46:5932.640N115.856W9.65 17 km (10 mi) SE of Ocotillo, CA
map0.22024/05/28 06:24:1136.863N116.245W1.6 46 km (28 mi) E of Beatty, NV
map0.62024/05/28 06:19:0833.272N116.430W4.9 5 km ( 3 mi) WNW of Borrego Springs, CA
map1.52024/05/28 05:38:0635.666N121.075W5.01000022888184 11 km ( 7 mi) N of Cambria, CA
map1.12024/05/28 05:21:2539.576N119.065W9.7 16 km (10 mi) ESE of Fernley, NV
map1.12024/05/28 05:06:0733.382N116.874W2.93 3 km ( 2 mi) NNW of Palomar Observatory, CA
map1.62024/05/28 05:01:3940.216N121.147W7.58 12 km ( 8 mi) SE of Chester, CA
map1.32024/05/28 03:08:4238.150N118.251W12.3 53 km (33 mi) SE of Hawthorne, NV
map0.92024/05/28 02:50:0036.690N116.326W9.4 45 km (28 mi) ESE of Beatty, NV
map0.52024/05/28 02:35:1433.264N116.415W6.38 4 km ( 2 mi) WNW of Borrego Springs, CA
map1.12024/05/28 02:34:2137.740N115.036W12.2 43 km (27 mi) NNE of Alamo, NV
map0.82024/05/28 02:16:3534.269N116.397W2.83 17 km (10 mi) NNW of Joshua Tree, CA
map0.62024/05/28 02:16:0333.267N116.421W4.78 4 km ( 3 mi) WNW of Borrego Springs, CA
map1.82024/05/28 02:05:4338.827N122.799W2.80999994277954 7 km ( 4 mi) W of Cobb, CA
map1.92024/05/28 02:04:1434.762N117.324W2.16 21 km (13 mi) NNE of Adelanto, CA
map0.72024/05/28 00:59:2934.214N117.587W7.07 10 km ( 6 mi) WSW of Lytle Creek, CA
map2.22024/05/28 00:51:4738.561N119.495W10.7 28 km (17 mi) SSW of Smith Valley, NV
map1.42024/05/28 00:46:0639.713N120.530W2.5 12 km ( 8 mi) SSW of Portola, CA
map2.62024/05/28 00:45:2434.097N117.419W3.08 4 km ( 2 mi) E of Fontana, CA
map1.42024/05/28 00:03:1135.798N120.733W10.0299997329712 6 km ( 4 mi) NW of San Miguel, CA
map1.72024/05/28 00:02:5131.478N115.603W10.43 93 km (58 mi) SSW of Alberto Oviedo Mota, B.C., MX
map-0.52024/05/27 23:53:3936.711N116.133W0.3 57 km (35 mi) N of Pahrump, NV
map1.22024/05/27 23:47:0138.373N118.896W7.3 29 km (18 mi) SW of Hawthorne, NV
map1.92024/05/27 23:43:1138.368N118.911W3.8 31 km (19 mi) SW of Hawthorne, NV
map0.72024/05/27 23:15:1535.638N117.562W8.8 10 km ( 7 mi) E of Ridgecrest, CA
map1.02024/05/27 22:22:4134.148N116.892W7.97 11 km ( 7 mi) S of Big Bear Lake, CA
map1.82024/05/27 21:32:3738.366N118.904W5.3 30 km (19 mi) SW of Hawthorne, NV
map0.42024/05/27 21:32:1739.419N119.924W5.1 11 km ( 7 mi) S of Mogul, NV
map1.32024/05/27 21:16:5336.731N121.406W5.96000003814697 10 km ( 6 mi) SSW of Ridgemark, CA
map2.52024/05/27 21:13:0331.477N115.608W8.37 93 km (58 mi) SSW of Alberto Oviedo Mota, B.C., MX
map2.22024/05/27 20:24:1335.987N119.932W14.1999998092651 4 km ( 2 mi) SE of Kettleman City, CA
map2.02024/05/27 20:00:0436.589N121.188W6.73999977111816 22 km (14 mi) NE of Soledad, CA
map1.12024/05/27 19:57:3834.080N117.314W15.26 1 km ( 0 mi) N of Colton, CA
map0.82024/05/27 19:30:3334.029N117.130W7.76 5 km ( 3 mi) S of Mentone, CA
map1.02024/05/27 19:13:0132.859N116.153W9.42 20 km (13 mi) NW of Ocotillo, CA
map1.32024/05/27 19:11:4538.842N122.823W1.74 9 km ( 6 mi) WNW of Cobb, CA
map1.72024/05/27 19:07:2336.530N121.155W3.67000007629395 19 km (12 mi) NE of Soledad, CA
map2.02024/05/27 18:55:0338.827N122.809W2.26999998092651 7 km ( 4 mi) NW of The Geysers, CA
map1.32024/05/27 18:41:3037.124N121.525W6.84999990463257 9 km ( 5 mi) ENE of San Martin, CA
map0.92024/05/27 17:52:3739.591N119.081W8.5 15 km ( 9 mi) E of Fernley, NV
map0.92024/05/27 17:46:2333.310N116.247W6.34 13 km ( 8 mi) ENE of Borrego Springs, CA
map2.12024/05/27 17:43:5735.665N121.074W5.6100001335144 11 km ( 7 mi) N of Cambria, CA
map0.92024/05/27 17:40:4733.037N116.004W8.18 17 km (10 mi) SE of Ocotillo Wells, CA
map0.82024/05/27 17:07:1838.985N118.133W6.6 66 km (41 mi) NE of Hawthorne, NV
map0.12024/05/27 16:39:3236.759N116.245W7.8 48 km (30 mi) ESE of Beatty, NV
map0.22024/05/27 16:39:0836.772N116.253W9.6 47 km (29 mi) ESE of Beatty, NV
map-0.52024/05/27 16:37:1336.773N116.250W8.9 47 km (29 mi) ESE of Beatty, NV
map1.52024/05/27 15:51:2434.349N119.769W-0.6 10 km ( 6 mi) SW of Santa Barbara, CA
map0.92024/05/27 15:15:3639.590N119.118W10.9 12 km ( 7 mi) E of Fernley, NV
map1.52024/05/27 14:22:3833.282N116.773W12.13 5 km ( 3 mi) N of Lake Henshaw, CA
map1.12024/05/27 13:55:3134.008N117.183W13.5 5 km ( 3 mi) S of Redlands, CA
map1.22024/05/27 13:54:1934.010N117.184W13.61 5 km ( 3 mi) S of Redlands, CA
map1.22024/05/27 13:07:3832.901N115.525W10.59 7 km ( 5 mi) NE of Imperial, CA
map2.02024/05/27 13:06:4541.150N122.012W3.52999997138977 16 km (10 mi) SE of McCloud, CA
map0.92024/05/27 13:03:0733.161N116.632W3.01 10 km ( 6 mi) NNW of Julian, CA
map0.72024/05/27 12:38:1833.512N116.567W9.99 11 km ( 7 mi) ESE of Anza, CA
map0.72024/05/27 12:30:4433.013N116.359W3.5 24 km (15 mi) ESE of Julian, CA
map2.72024/05/27 12:17:2131.481N115.617W8.88 93 km (58 mi) SSW of Alberto Oviedo Mota, B.C., MX
map0.82024/05/27 12:17:2033.276N116.430W4.28 6 km ( 3 mi) WNW of Borrego Springs, CA
map1.22024/05/27 12:15:3735.035N117.678W-0.84 5 km ( 3 mi) NW of Boron, CA
map0.52024/05/27 12:05:4433.274N116.420W5.66 5 km ( 3 mi) WNW of Borrego Springs, CA
map1.12024/05/27 11:49:4237.296N117.621W0.0 61 km (38 mi) ENE of Big Pine, CA
map0.82024/05/27 11:31:4137.450N117.072W0.1 66 km (41 mi) NNW of Beatty, NV
map2.82024/05/27 11:04:4331.494N115.603W6.95 91 km (57 mi) SSW of Alberto Oviedo Mota, B.C., MX
map2.82024/05/27 10:52:1131.496N115.608W5.36 91 km (57 mi) SSW of Alberto Oviedo Mota, B.C., MX
map0.82024/05/27 10:50:3137.846N122.237W8.22000026702881 2 km ( 2 mi) N of Piedmont, CA
map1.02024/05/27 10:36:4333.885N116.808W16.81 4 km ( 3 mi) SSW of Cabazon, CA
map1.12024/05/27 10:06:3533.700N116.729W17.17 5 km ( 3 mi) SSW of Idyllwild, CA
map2.12024/05/27 09:23:2233.643N116.714W17.1 10 km ( 6 mi) NNW of Anza, CA
map0.92024/05/27 08:38:4139.581N120.014W8.8 7 km ( 5 mi) NNW of Verdi, NV
map0.72024/05/27 08:38:1739.393N120.148W8.4 8 km ( 5 mi) NNE of Truckee, CA
map1.02024/05/27 08:36:4032.913N116.237W7.96 27 km (17 mi) SSW of Ocotillo Wells, CA
map0.92024/05/27 08:26:5436.165N117.854W4.09 16 km (10 mi) NNE of Coso Junction, CA
map0.92024/05/27 08:25:0436.158N117.860W3.72 15 km ( 9 mi) NNE of Coso Junction, CA
map1.22024/05/27 08:24:0835.595N117.485W7.04 18 km (11 mi) E of Ridgecrest, CA
map1.22024/05/27 08:21:2733.881N116.284W5.46 12 km ( 7 mi) NE of Thousand Palms, CA
map1.92024/05/27 08:07:1635.771N121.339W9.4399995803833 33 km (20 mi) NW of Cambria, CA
MAP3.02024/05/27 08:06:0631.487N115.613W4.94 92 km (57 mi) SSW of Alberto Oviedo Mota, B.C., MX
map0.62024/05/27 07:28:4533.644N116.707W12.02 10 km ( 6 mi) NNW of Anza, CA
map0.72024/05/27 07:13:5434.644N119.027W14.16 21 km (13 mi) SSW of Frazier Park, CA
map0.52024/05/27 07:13:3134.640N119.029W12.83 22 km (13 mi) SSW of Frazier Park, CA
MAP3.52024/05/27 07:03:1740.242N121.159W6.37 9 km ( 6 mi) SE of Chester, CA
map1.82024/05/27 07:02:2935.648N117.462W8.36 14 km ( 9 mi) SSW of Searles Valley, CA
map0.92024/05/27 06:39:0937.500N115.301W8.3 19 km (12 mi) NW of Alamo, NV
map0.92024/05/27 06:10:3233.213N116.029W9.21 12 km ( 7 mi) SW of Salton City, CA
map2.62024/05/27 05:52:5831.935N116.757W4.55 8 km ( 5 mi) WNW of El Sauzal, B.C., MX
map2.02024/05/27 05:22:0631.480N115.605W7.89 93 km (58 mi) SSW of Alberto Oviedo Mota, B.C., MX
map2.72024/05/27 05:17:1731.491N115.614W5 92 km (57 mi) SSW of Alberto Oviedo Mota, B.C., MX
map1.02024/05/27 05:08:5237.169N117.391W7.0 63 km (39 mi) WNW of Beatty, NV
map2.22024/05/27 05:08:4931.493N115.612W4.79 92 km (57 mi) SSW of Alberto Oviedo Mota, B.C., MX
map0.42024/05/27 04:52:5833.583N116.808W8.36 13 km ( 8 mi) WNW of Anza, CA
MAP3.02024/05/27 04:29:2931.479N115.614W6.55 93 km (58 mi) SSW of Alberto Oviedo Mota, B.C., MX
map2.12024/05/27 04:24:4231.483N115.626W0.79 93 km (58 mi) ESE of Maneadero, B.C., MX
map2.52024/05/27 04:24:2031.489N115.607W9.81 92 km (57 mi) SSW of Alberto Oviedo Mota, B.C., MX
map2.52024/05/27 04:24:0431.488N115.618W6.97 92 km (57 mi) SSW of Alberto Oviedo Mota, B.C., MX
MAP3.02024/05/27 04:23:4831.478N115.618W6.79 93 km (58 mi) SSW of Alberto Oviedo Mota, B.C., MX
MAP3.52024/05/27 04:21:2831.484N115.607W6.7 92 km (57 mi) SSW of Alberto Oviedo Mota, B.C., MX
map2.82024/05/27 04:12:5731.474N115.613W7.11 94 km (58 mi) SSW of Alberto Oviedo Mota, B.C., MX
MAP3.42024/05/27 04:04:2231.479N115.609W6.26 93 km (58 mi) SSW of Alberto Oviedo Mota, B.C., MX
map1.12024/05/27 04:01:5538.791N122.734W1.72 2 km ( 2 mi) NE of The Geysers, CA
map1.22024/05/27 03:59:2735.622N117.465W8.95 17 km (11 mi) SSW of Searles Valley, CA
map1.72024/05/27 03:41:5740.802N122.300W4.25 15 km ( 9 mi) NNE of Shasta Lake, CA
map0.62024/05/27 03:36:5733.176N116.460W6.09 12 km ( 7 mi) SW of Borrego Springs, CA
map0.82024/05/27 03:09:0233.266N116.431W2.99 5 km ( 3 mi) WNW of Borrego Springs, CA
map1.52024/05/27 02:48:0938.475N122.748W6.32000017166138 4 km ( 3 mi) S of Larkfield-Wikiup, CA
map1.02024/05/27 02:44:2232.773N115.837W7.31 15 km ( 9 mi) ENE of Ocotillo, CA
map1.32024/05/27 02:20:5934.522N116.258W2.39 24 km (15 mi) SSW of Ludlow, CA
map0.32024/05/27 02:12:0433.674N116.727W14.98 7 km ( 5 mi) S of Idyllwild, CA
map0.12024/05/27 02:12:0133.665N116.725W13.47 8 km ( 5 mi) S of Idyllwild, CA
map0.62024/05/27 02:11:2533.272N116.431W4.44 6 km ( 3 mi) WNW of Borrego Springs, CA
map0.92024/05/27 02:10:4333.267N116.432W4.27 5 km ( 3 mi) WNW of Borrego Springs, CA
map2.12024/05/27 02:09:5537.300N121.668W5.34999990463257 15 km ( 9 mi) E of Seven Trees, CA
map1.02024/05/27 02:01:5933.030N116.008W8.24 17 km (11 mi) SE of Ocotillo Wells, CA
map1.62024/05/27 01:55:2036.953N117.545W0.0 53 km (33 mi) NW of Stovepipe Wells, CA
map1.62024/05/27 01:50:1636.945N117.562W10.2 53 km (33 mi) NW of Stovepipe Wells, CA
map0.52024/05/27 01:17:1335.639N117.460W7.06 15 km ( 9 mi) SSW of Searles Valley, CA
map2.02024/05/27 00:41:4333.276N116.799W15.09 5 km ( 3 mi) NW of Lake Henshaw, CA
map0.72024/05/27 00:30:2133.269N116.429W4.59 5 km ( 3 mi) WNW of Borrego Springs, CA
map0.92024/05/27 00:28:0533.030N116.293W6.54 20 km (12 mi) SW of Ocotillo Wells, CA
map-0.52024/05/27 00:24:4136.635N116.286W6.0 52 km (32 mi) SE of Beatty, NV
map0.72024/05/26 23:53:5735.656N117.484W5.89 14 km ( 9 mi) SSW of Searles Valley, CA
map1.52024/05/26 23:34:0134.061N117.518W7.75 6 km ( 4 mi) NNW of Glen Avon, CA
map0.52024/05/26 23:29:5133.267N116.417W4.69 4 km ( 3 mi) WNW of Borrego Springs, CA
map0.62024/05/26 23:22:0334.014N116.326W10.21 14 km ( 8 mi) S of Joshua Tree, CA
map0.52024/05/26 23:20:1533.708N116.743W16.75 4 km ( 3 mi) SSW of Idyllwild, CA
map1.02024/05/26 23:01:3933.272N116.430W6.96 5 km ( 3 mi) WNW of Borrego Springs, CA
map1.42024/05/26 23:01:2433.268N116.433W6.01 6 km ( 3 mi) WNW of Borrego Springs, CA
map1.12024/05/26 22:58:5837.575N121.824W5.07999992370605 11 km ( 7 mi) SSE of Pleasanton, CA
MAP3.52024/05/26 22:58:4433.264N116.436W4.69 6 km ( 4 mi) W of Borrego Springs, CA
map0.92024/05/26 22:41:1838.175N117.874W9.8 57 km (36 mi) WNW of Tonopah, NV
map2.62024/05/26 22:18:3234.063N117.516W7.28 6 km ( 4 mi) NNW of Glen Avon, CA
map1.72024/05/26 22:11:2934.476N116.504W2.07 39 km (24 mi) NE of Big Bear City, CA
map2.12024/05/26 22:08:4740.226N121.151W1.01999998092651 11 km ( 7 mi) SE of Chester, CA
map1.72024/05/26 22:01:3434.062N117.517W7.81 6 km ( 4 mi) NNW of Glen Avon, CA
map2.22024/05/26 22:00:2638.828N122.816W1.95000004768372 8 km ( 5 mi) NW of The Geysers, CA
map-0.42024/05/26 21:49:3736.699N116.334W7.1 44 km (27 mi) ESE of Beatty, NV
map1.12024/05/26 21:42:1136.635N116.282W6.7 52 km (32 mi) SE of Beatty, NV
map1.62024/05/26 21:41:0736.720N121.412W5.30000019073486 11 km ( 7 mi) SSW of Ridgemark, CA
map1.92024/05/26 21:17:4939.435N123.110W-0.649999976158142 21 km (13 mi) NNE of Redwood Valley, CA
map1.02024/05/26 21:13:1538.171N117.907W12.2 60 km (37 mi) W of Tonopah, NV
map0.32024/05/26 21:10:0436.670N115.824W4.8 54 km (34 mi) NNE of Pahrump, NV
map1.22024/05/26 21:04:1535.664N117.471W8.1 13 km ( 8 mi) SSW of Searles Valley, CA
map1.32024/05/26 20:52:5933.777N116.134W7.18 10 km ( 6 mi) NE of Indio, CA
map0.32024/05/26 20:44:4835.642N117.462W7.23 15 km ( 9 mi) SSW of Searles Valley, CA
map2.52024/05/26 20:44:3740.041N122.918W3.74000000953674 39 km (25 mi) NE of Covelo, CA
map1.32024/05/26 20:30:0433.350N116.950W14.93 8 km ( 5 mi) W of Palomar Observatory, CA
map2.02024/05/26 20:29:5434.050N118.904W11.62 10 km ( 6 mi) WNW of Malibu, CA
map0.32024/05/26 20:27:5935.673N117.429W7.44 11 km ( 7 mi) SSW of Searles Valley, CA
map1.02024/05/26 20:27:0033.910N116.696W15.16 8 km ( 5 mi) E of Cabazon, CA
map0.62024/05/26 19:58:1233.944N117.912W5.81 3 km ( 2 mi) NNW of Brea, CA
map1.12024/05/26 19:54:0537.083N115.193W3.6 31 km (20 mi) S of Alamo, NV
map0.52024/05/26 19:42:4533.493N116.913W8.46 7 km ( 4 mi) NW of Aguanga, CA
map0.72024/05/26 19:28:0633.883N116.279W6.65 12 km ( 8 mi) NE of Thousand Palms, CA
map2.12024/05/26 19:24:1738.181N117.877W11.5 58 km (36 mi) WNW of Tonopah, NV
map1.12024/05/26 19:18:2733.413N116.652W4.23 15 km ( 9 mi) N of Warner Springs, CA
map1.22024/05/26 19:11:2934.712N119.080W13.45 16 km (10 mi) SSE of Pine Mountain Club, CA
map1.32024/05/26 19:07:5533.920N116.888W8.22 1 km ( 1 mi) WSW of Banning, CA
map1.22024/05/26 17:18:2733.365N116.825W6.26 4 km ( 2 mi) ENE of Palomar Observatory, CA
map0.32024/05/26 17:15:4733.473N116.572W9.96 13 km ( 8 mi) SE of Anza, CA
map1.32024/05/26 16:35:3834.011N117.268W13.27 4 km ( 3 mi) S of Loma Linda, CA
map1.62024/05/26 16:26:4735.031N117.689W-0.84 5 km ( 3 mi) NW of Boron, CA
map0.92024/05/26 15:45:1732.920N116.252W5.7 27 km (17 mi) SSW of Ocotillo Wells, CA
map0.82024/05/26 14:49:5535.846N117.669W10.34 24 km (15 mi) ESE of Little Lake, CA
map1.32024/05/26 14:32:2634.205N117.520W3.7 6 km ( 4 mi) SSW of Lytle Creek, CA
map0.52024/05/26 14:02:2838.847N122.815W1.82 8 km ( 5 mi) WNW of Cobb, CA
map0.42024/05/26 13:56:3633.995N117.005W13.98 5 km ( 3 mi) E of Calimesa, CA
map0.72024/05/26 13:40:2333.660N116.751W15.67 9 km ( 6 mi) SSW of Idyllwild, CA
map1.12024/05/26 12:15:5937.513N122.203W4.5 4 km ( 3 mi) NE of Redwood City, CA
map1.62024/05/26 12:15:0838.840N122.809W1.79999995231628 8 km ( 5 mi) WNW of Cobb, CA
map1.12024/05/26 11:40:4638.863N119.637W2.9 9 km ( 6 mi) ESE of Gardnerville Ranchos, NV
map1.12024/05/26 11:35:0837.451N115.265W10.0 13 km ( 8 mi) NW of Alamo, NV
map1.72024/05/26 11:33:3635.976N120.534W6.1399998664856 13 km ( 8 mi) NW of Parkfield, CA
map0.32024/05/26 11:33:2439.423N119.849W6.2 12 km ( 7 mi) S of Reno, NV
map0.82024/05/26 11:11:3233.703N116.747W15.78 5 km ( 3 mi) SSW of Idyllwild, CA
map1.02024/05/26 11:02:2635.773N117.585W3.12 16 km (10 mi) W of Searles Valley, CA
map1.22024/05/26 11:01:1736.295N120.875W6.11999988555908 24 km (15 mi) ENE of King City, CA
map1.22024/05/26 10:32:4832.724N115.467W7.28 6 km ( 4 mi) NNE of Calexico, CA
map0.72024/05/26 09:21:1435.679N117.475W8.39 12 km ( 7 mi) SSW of Searles Valley, CA
map0.92024/05/26 09:19:1536.094N117.901W5.29 7 km ( 4 mi) NE of Coso Junction, CA
map0.22024/05/26 09:04:0236.797N115.832W8.5 67 km (42 mi) NNE of Pahrump, NV
map0.82024/05/26 08:57:4033.714N116.772W15.55 6 km ( 4 mi) WSW of Idyllwild, CA
map0.92024/05/26 08:19:3433.755N116.038W5.09 15 km ( 9 mi) ENE of Coachella, CA
map0.62024/05/26 08:15:1633.685N116.693W17.27 7 km ( 4 mi) SSE of Idyllwild, CA
map1.32024/05/26 08:07:3233.675N116.712W16.01 7 km ( 5 mi) S of Idyllwild, CA
map1.12024/05/26 08:01:2333.275N116.808W14.07 6 km ( 3 mi) NW of Lake Henshaw, CA
map1.22024/05/26 07:27:2634.047N117.283W17.32 2 km ( 1 mi) W of Loma Linda, CA
map0.52024/05/26 07:21:4233.471N116.572W9.99 13 km ( 8 mi) SE of Anza, CA
map1.12024/05/26 07:18:5933.251N116.112W10.74 12 km ( 8 mi) N of Ocotillo Wells, CA
map2.32024/05/26 06:56:0938.794N122.808W2.91000008583069 5 km ( 3 mi) WNW of The Geysers, CA
map0.52024/05/26 06:55:3936.808N115.855W7.5 68 km (42 mi) NNE of Pahrump, NV
map0.72024/05/26 06:51:5634.496N117.965W7.21 3 km ( 2 mi) SSE of Littlerock, CA
map0.32024/05/26 06:02:0639.399N119.710W5.5 16 km (10 mi) SSE of Sparks, NV
map2.62024/05/26 05:59:0940.523N125.040W5.23999977111816 66 km (41 mi) W of Ferndale, CA
map0.62024/05/26 05:44:5433.576N116.751W13.26 8 km ( 5 mi) WNW of Anza, CA
map1.02024/05/26 05:34:4038.798N122.748W1.74 2 km ( 2 mi) NNE of The Geysers, CA
map0.22024/05/26 05:29:5033.634N116.686W-1.29 9 km ( 5 mi) N of Anza, CA
map1.32024/05/26 05:09:3238.797N122.759W1.82000005245209 2 km ( 1 mi) N of The Geysers, CA
map0.72024/05/26 04:48:1433.483N116.436W11.71 23 km (14 mi) SSW of La Quinta, CA
map1.32024/05/26 04:39:3935.762N117.585W2.62 16 km (10 mi) W of Searles Valley, CA
map0.62024/05/26 04:09:5533.684N116.786W14.26 9 km ( 5 mi) SW of Idyllwild, CA
map1.12024/05/26 03:57:1035.639N117.459W7.31 15 km ( 9 mi) SSW of Searles Valley, CA
map1.12024/05/26 03:57:0438.187N117.944W6.0 64 km (40 mi) WNW of Tonopah, NV
map1.22024/05/26 03:54:2636.105N117.897W3.05 8 km ( 5 mi) NE of Coso Junction, CA
map0.82024/05/26 03:50:4633.212N116.017W9.68 11 km ( 7 mi) SSW of Salton City, CA
map1.72024/05/26 03:46:1338.183N117.875W11.8 58 km (36 mi) WNW of Tonopah, NV
map0.92024/05/26 03:34:5438.187N117.805W11.4 52 km (32 mi) WNW of Tonopah, NV
map0.92024/05/26 03:12:1933.008N116.330W10.53 24 km (15 mi) SW of Ocotillo Wells, CA
map0.62024/05/26 03:10:3833.645N116.709W14 11 km ( 7 mi) NNW of Anza, CA
map0.42024/05/26 02:56:1833.379N116.938W6.73 7 km ( 5 mi) WNW of Palomar Observatory, CA
map1.12024/05/26 02:54:1134.021N117.580W2.64 6 km ( 3 mi) SE of Ontario, CA
map0.42024/05/26 02:35:4433.380N116.943W7.77 8 km ( 5 mi) WNW of Palomar Observatory, CA
map0.52024/05/26 02:32:4233.852N117.084W14.56 8 km ( 5 mi) NE of Nuevo, CA
map0.62024/05/26 01:45:1539.392N119.713W5.7 16 km (10 mi) SSE of Sparks, NV
map1.22024/05/26 01:23:0034.535N118.868W-0.14 15 km ( 9 mi) NNW of Piru, CA
map2.32024/05/26 01:09:1540.147N123.093W36.9500007629395 42 km (26 mi) NNE of Covelo, CA
map-0.12024/05/26 00:55:0139.598N119.947W12.0 9 km ( 6 mi) SSE of Cold Springs, NV
map0.62024/05/26 00:41:1833.277N116.805W14.99 6 km ( 3 mi) NW of Lake Henshaw, CA
map1.02024/05/26 00:17:0632.910N115.566W8.25 7 km ( 4 mi) N of Imperial, CA
map0.22024/05/26 00:10:3539.402N119.718W6.5 15 km ( 9 mi) S of Sparks, NV
map0.82024/05/25 23:57:1435.940N117.821W5.08 8 km ( 5 mi) E of Little Lake, CA
map1.02024/05/25 23:40:5838.502N119.557W11.5 36 km (23 mi) SSW of Smith Valley, NV
map1.12024/05/25 23:31:0438.835N122.809W2.46 8 km ( 5 mi) W of Cobb, CA
map1.82024/05/25 23:21:4738.841N122.808W0.389999985694885 8 km ( 5 mi) WNW of Cobb, CA
map2.62024/05/25 23:20:5338.835N122.806W2.29999995231628 7 km ( 5 mi) W of Cobb, CA
map0.32024/05/25 22:34:0833.588N116.808W8.2 13 km ( 8 mi) WNW of Anza, CA
map0.52024/05/25 21:55:2633.291N116.746W13.24 6 km ( 4 mi) NNE of Lake Henshaw, CA
map0.52024/05/25 20:53:3233.517N116.758W4.32 9 km ( 6 mi) WSW of Anza, CA
map1.22024/05/25 20:23:2435.605N117.595W4.41 8 km ( 5 mi) ESE of Ridgecrest, CA
map1.82024/05/25 19:41:5340.048N119.663W12.7 45 km (28 mi) N of Spanish Springs, NV
map0.72024/05/25 19:26:0533.275N116.805W15.27 5 km ( 3 mi) NW of Lake Henshaw, CA
map0.92024/05/25 19:22:1834.145N116.714W7.22 16 km (10 mi) NW of Morongo Valley, CA
map1.22024/05/25 19:22:1233.089N115.595W9.82 6 km ( 4 mi) NNE of Westmorland, CA
map2.32024/05/25 19:17:0940.393N124.308W20.4899997711182 21 km (13 mi) S of Ferndale, CA
map0.02024/05/25 19:11:1136.112N117.892W4.44 9 km ( 6 mi) NE of Coso Junction, CA
map1.22024/05/25 18:47:4736.810N121.195W4.03999996185303 15 km ( 9 mi) E of Ridgemark, CA
map0.72024/05/25 16:40:4634.539N119.276W2.93 11 km ( 7 mi) NNW of Ojai, CA
map-0.42024/05/25 16:04:4936.722N116.174W3.5 56 km (35 mi) ESE of Beatty, NV
map0.92024/05/25 16:04:4433.406N116.633W6.26 14 km ( 9 mi) N of Warner Springs, CA
map0.62024/05/25 14:56:1934.148N116.895W9.48 11 km ( 7 mi) S of Big Bear Lake, CA
map1.42024/05/25 14:20:2233.988N118.361W6.75 1 km ( 1 mi) SW of View Park-Windsor Hills, CA
map0.82024/05/25 13:55:0935.658N117.482W5.81 14 km ( 9 mi) SSW of Searles Valley, CA
map0.82024/05/25 13:53:0935.658N117.481W6.12 14 km ( 9 mi) SSW of Searles Valley, CA
map0.92024/05/25 13:26:3134.041N116.439W8.68 8 km ( 5 mi) S of Yucca Valley, CA
map1.92024/05/25 12:39:3835.018N119.178W8.9 19 km (12 mi) N of Pine Mountain Club, CA
map1.52024/05/25 12:38:2235.657N117.480W6.23 14 km ( 9 mi) SSW of Searles Valley, CA
map1.52024/05/25 12:37:2137.836N122.051W8.09000015258789 2 km ( 1 mi) SW of Alamo, CA
map0.62024/05/25 11:27:5235.613N117.575W9.27 9 km ( 6 mi) E of Ridgecrest, CA
map0.82024/05/25 11:23:2835.602N117.594W2.88 8 km ( 5 mi) ESE of Ridgecrest, CA
map0.82024/05/25 11:23:0936.104N117.893W5.54 8 km ( 5 mi) NE of Coso Junction, CA
map0.12024/05/25 10:23:1136.922N116.124W4.1 56 km (35 mi) E of Beatty, NV
map1.32024/05/25 09:57:0636.027N117.773W2.12 16 km (10 mi) NE of Little Lake, CA
map0.92024/05/25 09:47:4737.542N117.945W0.0 44 km (28 mi) ENE of Bishop, CA
map0.62024/05/25 08:33:2233.975N116.935W21.04 6 km ( 4 mi) NE of Beaumont, CA
map1.02024/05/25 07:59:4434.162N118.553W9.41 1 km ( 1 mi) S of Tarzana, CA
map1.32024/05/25 06:14:5432.911N116.243W7.04 28 km (17 mi) SSW of Ocotillo Wells, CA
map1.42024/05/25 06:10:5333.368N116.956W7.87 9 km ( 5 mi) W of Palomar Observatory, CA
map1.12024/05/25 06:01:5337.268N116.056W0.1 74 km (46 mi) ENE of Beatty, NV
map0.92024/05/25 05:27:5735.929N117.672W4.08 21 km (13 mi) E of Little Lake, CA
map0.52024/05/25 04:30:3033.504N116.493W14.3 18 km (11 mi) ESE of Anza, CA
map1.82024/05/25 04:21:3632.762N115.438W9.22 8 km ( 5 mi) SW of Holtville, CA
map0.42024/05/25 03:14:2933.471N116.573W10.6 13 km ( 8 mi) SE of Anza, CA
map0.42024/05/25 02:55:2039.387N119.871W7.4 15 km ( 9 mi) SSE of Mogul, NV
map1.52024/05/25 02:29:2133.778N116.150W3.42 9 km ( 6 mi) NE of Indio, CA
map0.72024/05/25 01:06:2233.812N117.638W5.84 9 km ( 6 mi) SW of Corona, CA
map1.12024/05/25 00:49:4837.220N115.273W0.0 19 km (12 mi) SSW of Alamo, NV
map1.02024/05/25 00:41:1737.248N116.058W0.0 72 km (45 mi) ENE of Beatty, NV
map2.72024/05/25 00:27:4837.281N116.020W7.1 76 km (47 mi) W of Alamo, NV
map0.92024/05/24 23:27:0638.166N117.980W9.7 66 km (41 mi) W of Tonopah, NV
map1.82024/05/24 22:48:4438.776N122.732W-0.709999978542328 2 km ( 1 mi) E of The Geysers, CA
map0.82024/05/24 22:40:4935.594N117.488W6.97 17 km (11 mi) E of Ridgecrest, CA
map0.52024/05/24 22:40:2735.592N117.499W6.74 16 km (10 mi) E of Ridgecrest, CA
map-0.32024/05/24 22:39:4636.774N116.253W8.9 47 km (29 mi) ESE of Beatty, NV
map1.92024/05/24 22:20:3935.596N117.484W6.97 18 km (11 mi) E of Ridgecrest, CA
map1.22024/05/24 22:01:3337.650N119.028W-0.100000001490116 5 km ( 3 mi) WNW of Mammoth Lakes, CA
map1.52024/05/24 21:56:2835.919N120.488W3.83999991416931 6 km ( 3 mi) WNW of Parkfield, CA
map1.02024/05/24 21:48:1337.651N119.028W-0.0399999991059303 5 km ( 3 mi) WNW of Mammoth Lakes, CA
map1.22024/05/24 21:40:0537.652N119.028W-0.180000007152557 5 km ( 3 mi) WNW of Mammoth Lakes, CA
map1.12024/05/24 21:39:1237.651N119.028W-0.0500000007450581 5 km ( 3 mi) WNW of Mammoth Lakes, CA
map2.12024/05/24 21:15:3738.828N122.854W1.07000005245209 10 km ( 6 mi) NW of The Geysers, CA
map1.12024/05/24 21:04:5733.735N116.031W4.59 14 km ( 9 mi) NE of Thermal, CA
map1.02024/05/24 19:27:2039.396N119.705W6.4 16 km (10 mi) SSE of Sparks, NV
map0.72024/05/24 18:17:5338.842N122.831W1.05999994277954 10 km ( 6 mi) WNW of Cobb, CA
map1.32024/05/24 18:16:3338.845N122.828W1.22000002861023 9 km ( 6 mi) WNW of Cobb, CA
map1.72024/05/24 17:45:1038.842N122.829W1.61000001430511 9 km ( 6 mi) WNW of Cobb, CA
map0.82024/05/24 17:43:1838.845N122.831W0.879999995231628 10 km ( 6 mi) WNW of Cobb, CA
map0.92024/05/24 17:34:2138.817N122.751W13.6400003433228 2 km ( 2 mi) WSW of Cobb, CA
map1.12024/05/24 17:29:5638.845N122.830W1.64999997615814 10 km ( 6 mi) WNW of Cobb, CA
map0.32024/05/24 17:23:5638.840N122.838W1.62000000476837 10 km ( 6 mi) NW of The Geysers, CA
map2.12024/05/24 17:06:0039.485N119.449W13.8 14 km ( 9 mi) NNW of Stagecoach, NV
map2.82024/05/24 17:03:5540.420N125.410W10 98 km (61 mi) W of Ferndale, CA
map0.32024/05/24 16:52:2538.847N122.836W6.82000017166138 10 km ( 6 mi) WNW of Cobb, CA
map0.52024/05/24 16:50:1838.835N122.812W1.83000004291534 8 km ( 5 mi) W of Cobb, CA
map1.82024/05/24 16:39:3436.927N121.656W7.73999977111816 4 km ( 3 mi) NNW of Aromas, CA
map1.12024/05/24 16:37:3638.842N122.830W1.0900000333786 10 km ( 6 mi) WNW of Cobb, CA
map0.72024/05/24 15:55:5238.836N122.800W2.08999991416931 7 km ( 4 mi) WNW of Cobb, CA
map0.82024/05/24 15:45:1538.844N122.832W1.75 10 km ( 6 mi) WNW of Cobb, CA
map0.82024/05/24 15:42:1938.844N122.831W1.1599999666214 10 km ( 6 mi) WNW of Cobb, CA
map0.72024/05/24 14:59:3633.279N116.803W11.22 6 km ( 3 mi) NW of Lake Henshaw, CA
map1.02024/05/24 14:48:2837.462N119.091W12.82 22 km (14 mi) SSW of Mammoth Lakes, CA
map1.12024/05/24 14:47:0438.818N122.822W2.16000008583069 7 km ( 5 mi) NW of The Geysers, CA
map0.32024/05/24 14:42:4138.851N122.810W6.78999996185303 8 km ( 5 mi) WNW of Cobb, CA
map1.12024/05/24 14:42:0433.878N116.281W4.64 12 km ( 7 mi) ENE of Thousand Palms, CA
map1.32024/05/24 14:35:3138.819N122.842W2.10999989509583 9 km ( 5 mi) WNW of The Geysers, CA
map1.72024/05/24 14:02:5240.729N122.403W20.01 6 km ( 4 mi) NNW of Central Valley (historical), CA
map1.12024/05/24 13:59:5238.843N122.831W1.01999998092651 10 km ( 6 mi) WNW of Cobb, CA
map1.02024/05/24 13:58:2833.035N116.293W6.93 19 km (12 mi) SW of Ocotillo Wells, CA
map1.42024/05/24 13:56:2336.022N117.331W5.22 29 km (18 mi) N of Trona, CA
map1.22024/05/24 13:49:3133.245N116.043W3.69 10 km ( 6 mi) SW of Salton City, CA
map0.72024/05/24 13:22:1938.835N122.801W1.80999994277954 7 km ( 4 mi) WNW of Cobb, CA
map0.32024/05/24 13:05:2938.794N122.783W5.11999988555908 3 km ( 2 mi) NW of The Geysers, CA
map1.02024/05/24 12:34:4733.683N116.791W17.58 9 km ( 6 mi) SW of Idyllwild, CA
map0.32024/05/24 12:32:4038.837N122.802W2.42000007629395 7 km ( 4 mi) WNW of Cobb, CA
map0.92024/05/24 12:11:5838.808N122.818W2.9300000667572 6 km ( 4 mi) WNW of The Geysers, CA
map0.82024/05/24 12:02:0638.821N122.843W2.13000011444092 9 km ( 6 mi) WNW of The Geysers, CA
map0.12024/05/24 12:00:2035.649N117.559W7.1 11 km ( 7 mi) ENE of Ridgecrest, CA
map0.62024/05/24 11:49:1833.525N116.736W2.9 7 km ( 4 mi) WSW of Anza, CA
map0.72024/05/24 11:31:4438.826N122.765W2.13000011444092 4 km ( 2 mi) W of Cobb, CA
map0.82024/05/24 11:21:0433.876N116.282W3.24 12 km ( 7 mi) ENE of Thousand Palms, CA
map0.82024/05/24 10:43:1733.522N116.737W3.62 7 km ( 4 mi) WSW of Anza, CA
map0.92024/05/24 10:43:0738.835N122.786W1.62000000476837 6 km ( 4 mi) WNW of Cobb, CA
map0.92024/05/24 10:40:4838.835N122.806W1.8400000333786 7 km ( 5 mi) WNW of Cobb, CA
map1.12024/05/24 10:29:4938.828N122.880W17.4500007629395 12 km ( 8 mi) WNW of The Geysers, CA
map0.92024/05/24 10:13:5838.815N122.786W1.74000000953674 5 km ( 3 mi) NNW of The Geysers, CA
map1.02024/05/24 10:05:2538.824N122.808W3.13000011444092 7 km ( 4 mi) NW of The Geysers, CA
map0.92024/05/24 09:53:0738.845N122.817W1.91999995708466 9 km ( 5 mi) WNW of Cobb, CA
map1.12024/05/24 09:32:4338.533N122.757W6.17 2 km ( 1 mi) NNW of Larkfield-Wikiup, CA
map1.02024/05/24 09:32:3338.534N122.761W6.06 2 km ( 2 mi) NNW of Larkfield-Wikiup, CA
map1.02024/05/24 09:23:3633.524N116.733W2.91 6 km ( 4 mi) WSW of Anza, CA
map0.32024/05/24 09:14:4538.833N122.817W1.20000004768372 8 km ( 5 mi) NW of The Geysers, CA
map1.62024/05/24 08:58:5737.357N115.309W0.0 13 km ( 8 mi) W of Alamo, NV
map1.02024/05/24 08:47:5338.824N122.807W2.25999999046326 7 km ( 4 mi) NW of The Geysers, CA
map1.12024/05/24 08:24:0738.790N122.725W1.75999999046326 3 km ( 2 mi) ENE of The Geysers, CA
map1.02024/05/24 08:10:5333.276N116.807W13.83 6 km ( 3 mi) NW of Lake Henshaw, CA
map1.02024/05/24 08:00:5133.522N116.733W2.83 7 km ( 4 mi) SW of Anza, CA
map0.82024/05/24 07:58:2138.817N122.826W2.42000007629395 7 km ( 5 mi) NW of The Geysers, CA
map1.42024/05/24 07:43:5133.963N116.757W15.21 6 km ( 4 mi) NNE of Cabazon, CA
map0.42024/05/24 07:34:2536.991N116.394W12.1 33 km (21 mi) ENE of Beatty, NV
map1.32024/05/24 07:33:4537.349N117.176W4.2 61 km (38 mi) NW of Beatty, NV
map0.72024/05/24 07:28:3936.103N117.888W4.81 8 km ( 5 mi) NE of Coso Junction, CA
map1.62024/05/24 07:13:2034.458N116.513W8.14 38 km (23 mi) NE of Big Bear City, CA
map1.02024/05/24 06:34:1134.151N117.329W6.71 1 km ( 1 mi) ESE of Muscoy, CA
map0.82024/05/24 06:29:1538.808N122.818W2.82999992370605 6 km ( 4 mi) WNW of The Geysers, CA
map0.42024/05/24 06:26:5438.840N122.810W1.94000005722046 8 km ( 5 mi) WNW of Cobb, CA
map0.82024/05/24 06:24:0938.818N122.824W1.92999994754791 7 km ( 5 mi) NW of The Geysers, CA
map0.82024/05/24 06:09:4738.822N122.842W1.37000000476837 9 km ( 6 mi) NW of The Geysers, CA
map0.52024/05/24 06:06:2333.508N116.762W11.17 10 km ( 6 mi) WSW of Anza, CA
map1.02024/05/24 05:49:5035.447N118.286W2.68 24 km (15 mi) SE of Bodfish, CA
map1.12024/05/24 05:42:3938.808N122.816W2.83999991416931 6 km ( 4 mi) WNW of The Geysers, CA
map0.52024/05/24 05:18:3133.414N116.458W13.43 19 km (12 mi) NNW of Borrego Springs, CA
map0.72024/05/24 05:14:1938.833N122.821W1.79999995231628 8 km ( 5 mi) NW of The Geysers, CA
map1.32024/05/24 05:13:4438.764N122.734W1.78999996185303 2 km ( 2 mi) SE of The Geysers, CA
map2.12024/05/24 04:37:0335.446N118.290W4.53 24 km (15 mi) SE of Bodfish, CA
map1.42024/05/24 04:31:3035.876N117.714W4.92 19 km (12 mi) ESE of Little Lake, CA
map2.82024/05/24 04:29:4037.427N119.986W13.6300001144409 7 km ( 4 mi) SSW of Mariposa, CA
map2.22024/05/24 04:23:5637.405N119.991W17.76 9 km ( 6 mi) SSW of Mariposa, CA
map2.22024/05/24 04:18:4837.397N119.995W16.3 10 km ( 6 mi) SSW of Mariposa, CA
map1.12024/05/24 04:09:3138.806N122.777W3.20000004768372 4 km ( 2 mi) NNW of The Geysers, CA
map0.42024/05/24 03:47:2039.395N119.707W6.6 16 km (10 mi) SSE of Sparks, NV
map0.52024/05/24 03:46:1739.399N119.712W6.3 16 km (10 mi) SSE of Sparks, NV
map0.62024/05/24 03:40:4633.276N116.805W14.51 5 km ( 3 mi) NW of Lake Henshaw, CA
map1.82024/05/24 03:39:3237.713N117.311W3.9 40 km (25 mi) S of Tonopah, NV
map1.22024/05/24 03:33:1932.811N116.176W8.41 19 km (12 mi) WNW of Ocotillo, CA
map-0.32024/05/24 03:32:4436.729N116.296W9.1 45 km (28 mi) ESE of Beatty, NV
map0.32024/05/24 03:21:2938.824N122.790W1.13999998569489 6 km ( 4 mi) W of Cobb, CA
map0.12024/05/24 03:19:5333.536N116.451W8.91 19 km (12 mi) SW of La Quinta, CA
map0.32024/05/24 03:19:1333.646N116.708W12.49 10 km ( 7 mi) S of Idyllwild, CA
map0.82024/05/24 03:11:5734.004N116.173W12.95 18 km (11 mi) SSW of Twentynine Palms, CA
map0.92024/05/24 03:11:4234.003N116.172W12.56 18 km (11 mi) SSW of Twentynine Palms, CA
map0.62024/05/24 03:06:5239.397N119.713W6.1 16 km (10 mi) SSE of Sparks, NV
map2.02024/05/24 02:33:5133.242N116.045W3.35 10 km ( 6 mi) SW of Salton City, CA
map0.72024/05/24 02:24:1933.148N116.451W14.98 14 km ( 9 mi) SSW of Borrego Springs, CA
map0.92024/05/24 02:23:4833.149N116.458W13.41 14 km ( 9 mi) SSW of Borrego Springs, CA
map0.92024/05/24 02:12:1334.032N116.776W13.22 13 km ( 8 mi) N of Cabazon, CA
map1.12024/05/24 02:06:5037.602N118.849W6.28000020980835 12 km ( 8 mi) ESE of Mammoth Lakes, CA
map1.02024/05/24 01:52:3738.821N122.804W2.59999990463257 6 km ( 4 mi) NW of The Geysers, CA
map0.32024/05/24 01:12:5033.657N116.748W14.64 10 km ( 6 mi) SSW of Idyllwild, CA
map1.72024/05/24 01:09:3040.313N124.016W29.73 22 km (14 mi) SSE of Rio Dell, CA
map1.22024/05/24 00:54:1539.037N123.394W4.52 4 km ( 2 mi) NW of Boonville, CA
map0.42024/05/24 00:54:0138.777N122.716W2.31 4 km ( 2 mi) E of The Geysers, CA
map1.12024/05/24 00:48:5432.954N115.566W7.82 4 km ( 3 mi) SW of Brawley, CA
map1.12024/05/24 00:27:5338.823N122.765W1.95000004768372 4 km ( 2 mi) W of Cobb, CA
map-0.32024/05/24 00:24:5836.895N116.006W7.4 67 km (41 mi) E of Beatty, NV
map1.02024/05/24 00:13:4138.823N122.854W2.67000007629395 10 km ( 6 mi) WNW of The Geysers, CA
map1.12024/05/23 23:48:2738.816N122.813W2.78999996185303 7 km ( 4 mi) NW of The Geysers, CA
map0.52024/05/23 23:35:5539.393N119.716W5.8 16 km (10 mi) S of Sparks, NV
map0.92024/05/23 23:15:5834.162N117.475W11.29 7 km ( 5 mi) NNW of Fontana, CA
map0.42024/05/23 23:11:5238.832N122.791W1.89999997615814 6 km ( 4 mi) W of Cobb, CA
map0.12024/05/23 22:45:0636.718N116.054W5.0 57 km (35 mi) N of Pahrump, NV
map0.82024/05/23 22:44:3234.003N117.195W12.41 6 km ( 4 mi) S of Redlands, CA
map0.92024/05/23 22:39:0834.033N116.777W12.54 13 km ( 8 mi) N of Cabazon, CA
map1.12024/05/23 22:30:3833.811N117.630W4.81 9 km ( 5 mi) SW of Corona, CA
map0.72024/05/23 22:09:0438.792N122.760W4.09999990463257 2 km ( 1 mi) N of The Geysers, CA
map1.12024/05/23 21:54:0338.840N122.836W1.26999998092651 10 km ( 6 mi) NW of The Geysers, CA
map0.52024/05/23 21:34:1038.844N122.829W1.55999994277954 10 km ( 6 mi) WNW of Cobb, CA
map1.12024/05/23 21:20:0638.827N122.807W2.72000002861023 7 km ( 4 mi) NW of The Geysers, CA
map-0.12024/05/23 20:54:1333.711N116.757W16.39 5 km ( 3 mi) SW of Idyllwild, CA
map2.32024/05/23 20:44:3136.156N118.066W3.56 15 km ( 9 mi) SSW of Olancha, CA
map1.52024/05/23 20:40:4339.437N123.103W-0.62 21 km (13 mi) NNE of Redwood Valley, CA
map1.02024/05/23 20:26:5638.814N122.827W1.94000005722046 7 km ( 5 mi) NW of The Geysers, CA
map0.22024/05/23 20:11:5037.644N119.044W0.98 6 km ( 4 mi) W of Mammoth Lakes, CA
map1.52024/05/23 20:07:4537.233N115.267W13.3 17 km (11 mi) SSW of Alamo, NV
map1.12024/05/23 20:01:2638.820N122.812W2.6800000667572 7 km ( 4 mi) NW of The Geysers, CA
map1.12024/05/23 19:58:5238.832N122.797W16.9500007629395 7 km ( 4 mi) W of Cobb, CA
map0.82024/05/23 19:55:5738.849N122.817W1.64999997615814 9 km ( 5 mi) WNW of Cobb, CA
map0.82024/05/23 19:55:2338.848N122.817W1.53999996185303 9 km ( 5 mi) WNW of Cobb, CA
map0.32024/05/23 19:54:4038.825N122.844W1.97000002861023 9 km ( 6 mi) NW of The Geysers, CA
map1.42024/05/23 19:54:3738.833N122.818W1.89999997615814 8 km ( 5 mi) NW of The Geysers, CA
map1.12024/05/23 19:49:3438.815N122.825W2.00999999046326 7 km ( 5 mi) NW of The Geysers, CA
map1.02024/05/23 19:47:0738.839N122.807W1.79999995231628 8 km ( 5 mi) WNW of Cobb, CA
map1.62024/05/23 19:46:3538.814N122.825W2.08999991416931 7 km ( 4 mi) NW of The Geysers, CA
map0.52024/05/23 19:39:4438.811N122.786W1.00999999046326 5 km ( 3 mi) NW of The Geysers, CA
map0.82024/05/23 19:36:5338.833N122.803W1.9099999666214 7 km ( 4 mi) W of Cobb, CA
map0.82024/05/23 19:31:3938.834N122.804W1.42999994754791 7 km ( 4 mi) W of Cobb, CA
map1.72024/05/23 19:23:3339.437N123.117W0.100000001490116 20 km (13 mi) NNE of Redwood Valley, CA
map2.02024/05/23 19:11:4232.116N116.403W5.08 34 km (21 mi) NE of Ensenada, B.C., MX
map0.82024/05/23 18:53:3338.823N122.844W1.92999994754791 9 km ( 6 mi) NW of The Geysers, CA
map0.22024/05/23 18:52:1737.644N119.041W0.52 6 km ( 3 mi) W of Mammoth Lakes, CA
map0.82024/05/23 18:40:5738.825N122.850W1.86000001430511 10 km ( 6 mi) WNW of The Geysers, CA
map0.52024/05/23 18:38:4138.822N122.796W1.66999995708466 6 km ( 4 mi) NW of The Geysers, CA
map1.22024/05/23 18:38:0733.151N115.984W7.43 14 km ( 9 mi) E of Ocotillo Wells, CA
map0.92024/05/23 18:25:0438.795N122.807W3.25 5 km ( 3 mi) WNW of The Geysers, CA
map0.92024/05/23 18:21:1835.916N117.732W9.71 16 km (10 mi) E of Little Lake, CA
map0.92024/05/23 18:17:1438.822N122.850W2.44000005722046 10 km ( 6 mi) WNW of The Geysers, CA
map0.62024/05/23 18:16:3838.823N122.850W1.77999997138977 10 km ( 6 mi) WNW of The Geysers, CA
map1.22024/05/23 18:15:0438.824N122.854W1.73000001907349 10 km ( 6 mi) WNW of The Geysers, CA
map2.22024/05/23 18:14:3738.821N122.849W2.13000011444092 9 km ( 6 mi) WNW of The Geysers, CA
map1.02024/05/23 18:08:3234.011N116.862W17.56 10 km ( 6 mi) N of Banning, CA
map0.82024/05/23 18:00:0033.278N116.800W14.1 5 km ( 3 mi) NW of Lake Henshaw, CA
map0.92024/05/23 17:46:2638.794N122.755W0.759999990463257 2 km ( 1 mi) N of The Geysers, CA
map1.62024/05/23 17:37:4340.140N123.855W22.4200000762939 3 km ( 2 mi) NW of Redway, CA
map1.62024/05/23 17:35:2538.813N122.824W1.94000005722046 7 km ( 4 mi) NW of The Geysers, CA
map0.62024/05/23 17:33:4238.843N122.828W0.990000009536743 9 km ( 6 mi) WNW of Cobb, CA
map0.62024/05/23 17:32:1438.843N122.831W1.32000005245209 10 km ( 6 mi) WNW of Cobb, CA
map1.42024/05/23 17:11:2934.033N116.776W13.73 13 km ( 8 mi) N of Cabazon, CA
map1.42024/05/23 17:01:5733.577N116.809W8.22 13 km ( 8 mi) W of Anza, CA
map0.92024/05/23 16:59:2233.875N116.283W3.4 12 km ( 7 mi) ENE of Thousand Palms, CA
map1.02024/05/23 16:43:2138.844N122.830W1.23000001907349 10 km ( 6 mi) WNW of Cobb, CA
map0.72024/05/23 16:36:2238.799N122.846W3.74000000953674 8 km ( 5 mi) WNW of The Geysers, CA
map1.32024/05/23 16:29:0838.809N122.817W2.94000005722046 6 km ( 4 mi) NW of The Geysers, CA
map1.32024/05/23 15:53:3137.780N121.975W7.98000001907349 0 km ( 0 mi) ENE of San Ramon, CA
map0.72024/05/23 15:53:0538.817N122.824W2.9300000667572 7 km ( 5 mi) NW of The Geysers, CA
map2.52024/05/23 15:06:2036.471N121.066W5.46999979019165 23 km (14 mi) NE of Greenfield, CA
map0.22024/05/23 15:01:5138.843N122.831W1.36000001430511 10 km ( 6 mi) WNW of Cobb, CA
map1.12024/05/23 14:30:5938.842N122.831W1.05999994277954 10 km ( 6 mi) WNW of Cobb, CA
map1.32024/05/23 14:23:0838.833N122.882W2.01999998092651 12 km ( 8 mi) ENE of Cloverdale, CA
map2.12024/05/23 14:12:0338.843N122.831W0.660000026226044 10 km ( 6 mi) WNW of Cobb, CA
map2.02024/05/23 14:11:5838.843N122.831W1.17999994754791 10 km ( 6 mi) WNW of Cobb, CA
map0.82024/05/23 14:11:0637.394N121.608W5.96 19 km (12 mi) E of East Foothills, CA
map0.92024/05/23 13:51:5238.895N122.727W12.1499996185303 8 km ( 5 mi) N of Cobb, CA
map2.52024/05/23 13:36:3137.991N121.821W19.1700000762939 2 km ( 1 mi) SW of Antioch, CA
map0.52024/05/23 13:32:5138.797N122.769W2.51999998092651 2 km ( 1 mi) NNW of The Geysers, CA
map2.12024/05/23 12:41:5840.076N119.740W14.6 48 km (30 mi) N of Spanish Springs, NV
map2.32024/05/23 12:40:4340.094N119.727W15.0 50 km (31 mi) N of Spanish Springs, NV
map2.12024/05/23 12:34:2535.944N115.219W0.0 9 km ( 6 mi) SSE of Enterprise, NV
map0.32024/05/23 12:19:2738.822N122.806W2.71000003814697 7 km ( 4 mi) NW of The Geysers, CA
map1.72024/05/23 12:19:1238.824N122.802W2.33999991416931 7 km ( 4 mi) NW of The Geysers, CA
map0.72024/05/23 12:16:0038.787N122.772W1.32000005245209 2 km ( 1 mi) NW of The Geysers, CA
map1.32024/05/23 12:04:1838.825N122.766W1.94000005722046 4 km ( 2 mi) W of Cobb, CA
map0.22024/05/23 11:27:2638.831N122.820W1.9099999666214 8 km ( 5 mi) NW of The Geysers, CA
map1.92024/05/23 11:16:0436.887N121.622W1.95000004768372 2 km ( 1 mi) E of Aromas, CA
map1.02024/05/23 11:10:3638.828N122.826W13.5500001907349 8 km ( 5 mi) NW of The Geysers, CA
map0.72024/05/23 10:51:2938.824N122.853W7.01999998092651 10 km ( 6 mi) WNW of The Geysers, CA
map1.42024/05/23 10:50:1838.790N122.749W0.379999995231628 2 km ( 1 mi) NNE of The Geysers, CA
map0.82024/05/23 10:32:0838.806N122.819W2.69000005722046 6 km ( 4 mi) WNW of The Geysers, CA
map0.82024/05/23 10:30:3038.805N122.818W2.9300000667572 6 km ( 4 mi) WNW of The Geysers, CA
map1.32024/05/23 10:23:0236.078N117.650W2.41 27 km (17 mi) E of Coso Junction, CA
map0.22024/05/23 10:02:5438.831N122.810W2.00999999046326 8 km ( 5 mi) NW of The Geysers, CA
map0.72024/05/23 09:58:4938.820N122.785W1.55999994277954 5 km ( 3 mi) NNW of The Geysers, CA
map1.12024/05/23 09:50:0338.831N122.819W1.5 8 km ( 5 mi) NW of The Geysers, CA
map0.72024/05/23 09:33:4433.945N116.443W6.38 6 km ( 4 mi) ESE of Desert Hot Springs, CA
map1.12024/05/23 09:18:0638.791N122.760W1.03999996185303 2 km ( 1 mi) NNW of The Geysers, CA
map1.12024/05/23 08:45:5438.820N122.802W1.11000001430511 6 km ( 4 mi) NW of The Geysers, CA
map0.52024/05/23 08:42:4038.840N122.837W1.48000001907349 10 km ( 6 mi) NW of The Geysers, CA
map1.12024/05/23 08:36:1533.002N116.367W5.65 24 km (15 mi) ESE of Julian, CA
map1.82024/05/23 08:32:0339.365N123.223W7.09999990463257 11 km ( 7 mi) N of Redwood Valley, CA
map0.82024/05/23 08:20:2633.500N116.416W11.16 21 km (13 mi) SSW of La Quinta, CA
map1.22024/05/23 08:18:3438.796N122.785W3.60999989509583 3 km ( 2 mi) NW of The Geysers, CA
map1.22024/05/23 08:15:4638.794N122.785W3.22 3 km ( 2 mi) NW of The Geysers, CA
map1.12024/05/23 07:34:4235.493N118.522W3.01 11 km ( 7 mi) SSW of Bodfish, CA
map0.52024/05/23 07:19:1437.519N118.876W-0.09 16 km (10 mi) SE of Mammoth Lakes, CA
map1.22024/05/23 07:10:3533.001N116.369W5.54 23 km (15 mi) ESE of Julian, CA
map0.82024/05/23 07:08:1838.816N122.865W2.94000005722046 10 km ( 6 mi) WNW of The Geysers, CA
map0.62024/05/23 06:49:3539.969N120.547W12.6 19 km (12 mi) NNW of Portola, CA
map1.42024/05/23 06:42:1938.833N122.813W1.66999995708466 8 km ( 5 mi) W of Cobb, CA
map0.42024/05/23 06:25:1333.473N116.573W10.02 13 km ( 8 mi) SE of Anza, CA
map1.52024/05/23 06:19:1436.242N120.802W6.05000019073486 29 km (18 mi) E of King City, CA
map0.92024/05/23 06:18:0136.240N120.802W6.07000017166138 29 km (18 mi) E of King City, CA
map2.92024/05/23 06:08:1736.237N120.810W6.53999996185303 29 km (18 mi) E of King City, CA
map0.82024/05/23 06:01:3738.795N122.780W3.25 3 km ( 2 mi) NW of The Geysers, CA
map0.82024/05/23 05:39:5138.793N122.759W0.600000023841858 2 km ( 1 mi) N of The Geysers, CA
map0.92024/05/23 05:31:1933.034N116.011W4.69 17 km (10 mi) SE of Ocotillo Wells, CA
map-0.32024/05/23 05:27:1736.597N116.270W7.8 49 km (30 mi) NNW of Pahrump, NV
map-0.12024/05/23 05:07:0336.598N116.275W8.5 49 km (31 mi) NNW of Pahrump, NV
map0.62024/05/23 04:41:1339.443N118.070W12.1 61 km (38 mi) E of Fallon, NV
map0.22024/05/23 04:24:3433.587N116.809W7.79 13 km ( 8 mi) WNW of Anza, CA
map0.72024/05/23 04:11:3138.833N122.879W1.91999995708466 12 km ( 8 mi) WNW of The Geysers, CA
map1.42024/05/23 04:07:3637.502N118.873W2.17000007629395 18 km (11 mi) SSE of Mammoth Lakes, CA
map1.02024/05/23 04:04:2238.821N122.812W2.75 7 km ( 4 mi) NW of The Geysers, CA
map1.02024/05/23 03:53:1038.825N122.797W2.50999999046326 6 km ( 4 mi) NW of The Geysers, CA
map-0.42024/05/23 03:49:5336.860N115.972W10.1 70 km (43 mi) E of Beatty, NV
map0.82024/05/23 03:46:0535.978N117.486W2.2 25 km (15 mi) NNW of Searles Valley, CA
map0.32024/05/23 03:03:3838.817N122.802W0.829999983310699 6 km ( 4 mi) NW of The Geysers, CA
map0.82024/05/23 02:48:3533.353N116.372W10.85 11 km ( 7 mi) N of Borrego Springs, CA
map1.12024/05/23 02:46:0634.200N116.928W1.9 5 km ( 3 mi) SSW of Big Bear Lake, CA
map1.02024/05/23 02:45:2334.005N116.865W15.65 9 km ( 6 mi) N of Banning, CA
map1.12024/05/23 02:45:1234.004N116.867W15.46 9 km ( 5 mi) N of Banning, CA
map0.42024/05/23 02:24:4238.826N122.815W2.30999994277954 7 km ( 5 mi) NW of The Geysers, CA
map0.42024/05/23 02:23:2039.367N119.995W6.8 13 km ( 8 mi) N of Incline Village, NV
map0.82024/05/23 02:18:1738.806N122.836W0.990000009536743 8 km ( 5 mi) WNW of The Geysers, CA
map0.72024/05/23 01:57:1138.830N122.812W1.89999997615814 8 km ( 5 mi) NW of The Geysers, CA
map0.92024/05/23 01:45:1938.811N122.821W5.92999982833862 7 km ( 4 mi) NW of The Geysers, CA
map1.12024/05/23 00:52:1935.741N117.555W9.43 14 km ( 9 mi) WSW of Searles Valley, CA
map1.22024/05/23 00:30:1533.062N116.182W6.44 10 km ( 6 mi) SSW of Ocotillo Wells, CA
map0.92024/05/23 00:28:2938.160N118.087W3.1 62 km (38 mi) SE of Hawthorne, NV
map0.62024/05/23 00:16:4233.687N116.790W17.35 9 km ( 5 mi) SW of Idyllwild, CA
map1.02024/05/23 00:13:2034.324N116.763W0.56 10 km ( 6 mi) NE of Big Bear City, CA
map0.92024/05/23 00:09:5838.818N122.821W-0.579999983310699 7 km ( 4 mi) NW of The Geysers, CA
map1.32024/05/23 00:06:5733.962N116.649W14.88 11 km ( 7 mi) SW of Morongo Valley, CA
map0.82024/05/22 23:50:2237.288N116.037W6.9 76 km (47 mi) NE of Beatty, NV
map0.52024/05/22 23:39:3537.297N116.026W3.7 77 km (48 mi) W of Alamo, NV
map1.42024/05/22 23:28:0637.275N116.033W5.7 76 km (47 mi) ENE of Beatty, NV
map1.42024/05/22 23:24:4637.267N116.028W6.8 76 km (47 mi) ENE of Beatty, NV
map0.92024/05/22 23:16:0435.639N117.464W6.37 15 km (10 mi) SSW of Searles Valley, CA
map2.32024/05/22 23:13:2239.398N123.275W7.69000005722046 7 km ( 4 mi) E of Willits, CA
map0.82024/05/22 23:11:1038.827N122.798W1.30999994277954 7 km ( 4 mi) W of Cobb, CA
map0.82024/05/22 22:24:4438.818N122.824W2.07999992370605 7 km ( 5 mi) NW of The Geysers, CA
map1.22024/05/22 21:59:3338.821N122.762W19.1299991607666 3 km ( 2 mi) W of Cobb, CA
map1.02024/05/22 21:42:1732.907N116.244W7.05 28 km (18 mi) SSW of Ocotillo Wells, CA
map1.12024/05/22 21:34:1838.828N122.853W1.85000002384186 10 km ( 6 mi) NW of The Geysers, CA
map0.72024/05/22 21:33:3932.533N116.740W4.75 11 km ( 7 mi) WSW of Tecate, B.C., MX
map1.52024/05/22 21:05:4033.023N116.000W9.9 18 km (11 mi) SE of Ocotillo Wells, CA
map-0.12024/05/22 20:48:2236.658N116.273W7.1 51 km (32 mi) ESE of Beatty, NV
map2.02024/05/22 20:24:2034.285N118.575W7.69 4 km ( 3 mi) NE of Chatsworth, CA
map0.32024/05/22 19:42:4138.830N122.813W2.07999992370605 8 km ( 5 mi) NW of The Geysers, CA
map1.82024/05/22 19:38:5838.830N122.812W1.87999999523163 8 km ( 5 mi) NW of The Geysers, CA
map1.02024/05/22 19:28:4937.648N119.024W-1.23 4 km ( 3 mi) WNW of Mammoth Lakes, CA
map1.92024/05/22 18:11:1335.654N118.474W7.99 4 km ( 2 mi) N of Lake Isabella, CA
map0.02024/05/22 17:39:5336.741N116.295W8.8 45 km (28 mi) ESE of Beatty, NV
map1.02024/05/22 17:14:1733.944N117.004W16.11 3 km ( 2 mi) WNW of Beaumont, CA
map1.92024/05/22 16:26:4737.513N118.876W2.47000002861023 17 km (10 mi) SSE of Mammoth Lakes, CA
map1.62024/05/22 16:24:1535.026N117.701W-0.84 6 km ( 3 mi) WNW of Boron, CA
map2.62024/05/22 15:59:3437.495N118.874W1.51999998092651 18 km (11 mi) SSE of Mammoth Lakes, CA
map0.82024/05/22 15:28:3238.823N122.813W2.57999992370605 7 km ( 4 mi) NW of The Geysers, CA
map1.62024/05/22 14:36:1833.844N117.490W2.18 5 km ( 3 mi) SE of Home Gardens, CA
map2.12024/05/22 14:31:2735.984N120.546W2.47000002861023 14 km ( 9 mi) NW of Parkfield, CA
map1.42024/05/22 14:31:2432.764N116.900W3.67 4 km ( 2 mi) ENE of Rancho San Diego, CA
map0.82024/05/22 14:07:5333.036N115.993W9.52 18 km (11 mi) SE of Ocotillo Wells, CA
map1.02024/05/22 13:46:2034.195N117.077W3.4 3 km ( 2 mi) ESE of Running Springs, CA
map1.72024/05/22 13:40:5932.920N115.528W6.86 7 km ( 4 mi) S of Brawley, CA
map1.12024/05/22 13:32:3338.798N122.734W1.62000000476837 3 km ( 2 mi) SSW of Cobb, CA
map1.12024/05/22 13:31:5335.771N117.590W2.62 17 km (10 mi) W of Searles Valley, CA
map1.32024/05/22 13:10:4534.117N117.332W14.68 4 km ( 2 mi) ENE of Rialto, CA
map0.92024/05/22 12:52:0733.487N116.458W12.03 21 km (13 mi) ESE of Anza, CA
map1.62024/05/22 12:52:0033.478N116.470W9.58 21 km (13 mi) ESE of Anza, CA
map0.82024/05/22 12:37:1533.476N116.936W8.88 8 km ( 5 mi) WNW of Aguanga, CA
map1.42024/05/22 12:30:1032.606N116.983W3.45 7 km ( 4 mi) ESE of Chula Vista, CA
map0.92024/05/22 12:14:1137.491N118.874W0.62 19 km (12 mi) SSE of Mammoth Lakes, CA
map0.32024/05/22 12:10:5537.633N119.040W-1.67 5 km ( 3 mi) W of Mammoth Lakes, CA
map0.12024/05/22 12:10:2636.773N116.252W8.7 47 km (29 mi) ESE of Beatty, NV
map1.12024/05/22 11:54:5833.274N116.007W2.75 6 km ( 3 mi) WSW of Salton City, CA
map0.92024/05/22 11:51:2833.477N116.444W12.52 23 km (14 mi) ESE of Anza, CA
map0.72024/05/22 11:28:1738.829N122.817W2.03999996185303 8 km ( 5 mi) NW of The Geysers, CA
map1.72024/05/22 11:13:1236.641N121.262W8.90999984741211 21 km (13 mi) SSE of Ridgemark, CA
map1.22024/05/22 11:02:5737.068N121.475W8.85000038146973 11 km ( 7 mi) NE of Gilroy, CA
map1.12024/05/22 10:43:2138.823N122.851W2.05999994277954 10 km ( 6 mi) WNW of The Geysers, CA
map1.12024/05/22 10:40:1038.781N122.755W0.930000007152557 0 km ( 0 mi) NNE of The Geysers, CA
map1.32024/05/22 10:25:2934.344N118.533W10.76 8 km ( 5 mi) SSW of Santa Clarita, CA
map0.52024/05/22 10:07:5433.419N116.643W4.75 15 km ( 9 mi) N of Warner Springs, CA
map0.72024/05/22 10:04:3738.833N122.790W2.20000004768372 6 km ( 4 mi) WNW of Cobb, CA
map1.42024/05/22 09:56:0834.349N116.898W-1.7 11 km ( 7 mi) NNW of Big Bear City, CA
map1.42024/05/22 09:40:1234.337N118.514W5.26 7 km ( 4 mi) WNW of Sylmar, CA
map1.12024/05/22 09:24:4134.337N118.524W6.85 8 km ( 5 mi) NNW of Granada Hills, CA
map1.12024/05/22 09:22:3934.330N118.515W2.66 7 km ( 4 mi) N of Granada Hills, CA
map1.02024/05/22 09:19:0334.332N118.514W1.99 7 km ( 4 mi) WNW of Sylmar, CA
map-0.32024/05/22 09:13:0636.747N116.281W9.1 46 km (28 mi) ESE of Beatty, NV
map1.62024/05/22 08:55:4637.504N118.873W2.38000011444092 18 km (11 mi) SSE of Mammoth Lakes, CA
map1.22024/05/22 08:44:3836.039N120.599W3.22000002861023 22 km (13 mi) NW of Parkfield, CA
map0.72024/05/22 08:42:1838.840N122.796W1.6599999666214 7 km ( 4 mi) WNW of Cobb, CA
map0.92024/05/22 08:35:0135.487N118.296W2.24 21 km (13 mi) ESE of Bodfish, CA
map0.32024/05/22 08:13:1238.801N122.781W4.32999992370605 3 km ( 2 mi) NW of The Geysers, CA
map1.02024/05/22 08:01:1036.734N121.230W8.25 15 km ( 9 mi) SE of Ridgemark, CA
map1.82024/05/22 07:54:2137.502N118.873W2.47000002861023 18 km (11 mi) SSE of Mammoth Lakes, CA
map1.82024/05/22 07:49:1038.836N122.796W1.86000001430511 6 km ( 4 mi) WNW of Cobb, CA
map1.22024/05/22 07:35:0738.821N122.780W11.5900001525879 5 km ( 3 mi) W of Cobb, CA
map1.12024/05/22 07:25:1033.687N116.790W13.31 9 km ( 5 mi) SW of Idyllwild, CA
map0.52024/05/22 07:16:3838.788N122.768W1.79999995231628 2 km ( 1 mi) NW of The Geysers, CA
map1.12024/05/22 06:13:3138.733N118.674W8.2 23 km (15 mi) N of Hawthorne, NV
map0.92024/05/22 05:44:0836.679N115.726W10.9 58 km (36 mi) NNE of Pahrump, NV
map0.72024/05/22 05:07:1238.835N122.820W2.0699999332428 9 km ( 5 mi) NW of The Geysers, CA
map2.02024/05/22 04:56:0140.228N121.178W2.54 10 km ( 6 mi) SSE of Chester, CA
map1.42024/05/22 04:46:2933.786N117.681W3.12 11 km ( 7 mi) ENE of North Tustin, CA
map0.92024/05/22 04:28:0138.822N122.821W1.64999997615814 8 km ( 5 mi) NW of The Geysers, CA
map1.72024/05/22 04:20:4437.510N118.873W2.48000001907349 17 km (11 mi) SE of Mammoth Lakes, CA
map0.32024/05/22 04:14:5338.827N122.829W3.84999990463257 8 km ( 5 mi) NW of The Geysers, CA
map1.52024/05/22 04:12:0037.665N119.411W9.61 17 km (11 mi) ESE of Yosemite Valley, CA
map1.12024/05/22 04:03:1033.393N116.390W2.98 15 km ( 9 mi) N of Borrego Springs, CA
map1.72024/05/22 04:01:5940.214N121.170W2.99 12 km ( 7 mi) SSE of Chester, CA
map1.02024/05/22 03:52:3738.814N122.825W2.14000010490417 7 km ( 5 mi) NW of The Geysers, CA
map1.12024/05/22 03:37:0236.436N118.205W5.69 21 km (13 mi) SW of Lone Pine, CA
map2.52024/05/22 03:32:5837.410N119.991W15.710000038147 9 km ( 5 mi) SSW of Mariposa, CA
map0.82024/05/22 03:20:5134.189N116.937W9.23 7 km ( 4 mi) SSW of Big Bear Lake, CA
map0.72024/05/22 03:09:4938.810N122.830W1.60000002384186 7 km ( 5 mi) WNW of The Geysers, CA
map0.42024/05/22 03:08:0333.581N116.806W8.27 13 km ( 8 mi) WNW of Anza, CA
map0.72024/05/22 02:56:0533.383N116.350W4.76 14 km ( 9 mi) N of Borrego Springs, CA
map0.22024/05/22 02:36:2633.682N116.763W6.14 8 km ( 5 mi) SSW of Idyllwild, CA
map0.72024/05/22 02:24:4938.862N119.659W4.9 8 km ( 5 mi) ESE of Gardnerville Ranchos, NV
map0.82024/05/22 02:18:4538.819N122.823W1.83000004291534 7 km ( 5 mi) NW of The Geysers, CA
map0.82024/05/22 02:15:0236.689N115.704W3.2 60 km (37 mi) NNE of Pahrump, NV
map0.82024/05/22 02:11:1038.820N122.824W1.98000001907349 8 km ( 5 mi) NW of The Geysers, CA
map2.12024/05/22 02:02:3837.333N118.553W9.64000034332275 9 km ( 6 mi) WSW of West Bishop, CA
map0.72024/05/22 01:34:3138.846N119.664W2.5 8 km ( 5 mi) SE of Gardnerville Ranchos, NV
map1.02024/05/22 01:17:0138.818N122.763W2.22000002861023 4 km ( 2 mi) W of Cobb, CA
map-0.12024/05/22 00:39:4939.393N119.703W5.9 16 km (10 mi) SSE of Sparks, NV
map0.82024/05/22 00:25:2338.813N122.824W2.25 7 km ( 4 mi) NW of The Geysers, CA
map1.12024/05/22 00:16:3938.846N122.815W0.990000009536743 8 km ( 5 mi) WNW of Cobb, CA
map0.62024/05/22 00:09:1838.825N122.853W0.600000023841858 10 km ( 6 mi) WNW of The Geysers, CA
map0.82024/05/22 00:07:4938.835N122.810W1.77999997138977 8 km ( 5 mi) W of Cobb, CA
map1.12024/05/21 23:28:4633.436N117.681W11.81 4 km ( 2 mi) SSE of Dana Point, CA
map0.22024/05/21 22:50:2139.984N119.630W13.0 38 km (24 mi) N of Spanish Springs, NV
map0.82024/05/21 21:45:1038.817N122.823W2.45000004768372 7 km ( 4 mi) NW of The Geysers, CA
map0.72024/05/21 21:36:1238.825N122.763W2.22000002861023 3 km ( 2 mi) W of Cobb, CA
map1.12024/05/21 21:24:0038.807N122.822W2.5699999332428 7 km ( 4 mi) WNW of The Geysers, CA
map1.32024/05/21 20:34:2638.783N122.744W0.810000002384186 1 km ( 1 mi) ENE of The Geysers, CA
map0.32024/05/21 20:29:1438.833N122.790W0.720000028610229 6 km ( 4 mi) W of Cobb, CA
map1.02024/05/21 20:11:0333.422N116.920W4.01 6 km ( 3 mi) WSW of Aguanga, CA